Billings, MT

4:18 AM MST on February 07, 2016 (GMT -0700)
S. Billings | | Change Station
CLOSE
Current Station
Personal Weather Station
Location: Billings, MT
Elevation: 3146 ft
Nearby Weather Stations

Elev 3146 ft 45.76 °N, 108.51 °W | Updated 17 seconds ago

Partly Cloudy
Partly Cloudy
37.2 °F
Feels Like 32 °F
N
7.1
Wind Variable Wind from NNW
Gusts 13.8 mph

Today
High -- | Low -- °F
--% Chance of Precip.
Yesterday
High -- | Low -- °F
Precip. -- in
Pressure 30.35 in
Visibility 10.0 miles
Clouds Few 9500 ft
Windchill 32 °F
Dew Point 16 °F
Humidity 42%
Rainfall 0.00 in
Snow Depth Not available.
7:28 AM 5:28 PM
Waning Crescent, 2% visible
METAR KBIL 071053Z 30017KT 10SM FEW095 01/M09 A3028 RMK AO2 SLP276 T00111094
Pressure 30.35 in
Visibility 10.0 miles
Clouds Few 9500 ft
Windchill 32 °F
Dew Point 16 °F
Humidity 42%
Rainfall 0.00 in
Snow Depth Not available.
7:28 AM 5:28 PM
Waning Crescent, 2% visible
METAR KBIL 071053Z 30017KT 10SM FEW095 01/M09 A3028 RMK AO2 SLP276 T00111094

10-Day Weather Forecast

Almanac

Astronomy

Feb. 07, 2016 Rise Set
Actual Time
Civil Twilight
Nautical Twilight
Astronomical Twilight
Moon
Length of Visible Light
Length of Day
Tomorrow will be .
, % of the Moon is Illuminated

Today's Extremes

State Highs State Lows

Community

WunderPhotos

Upload Photos

1,891,170 photos uploaded!

WunderBlog® & News

Nearby

Air Quality

  Air Quality AQ Index Pollutant
Not available.

Snow Depth

Station Depth Elevation

Earthquake Activity

City Distance Mag. Time & Date
Minimum magnitude displayed is 2.5.

Coastal Water Temperatures

Place Temperature

Stations

Nearby Weather Stations

Station Location Temp. Windchill Dew Point Humidity Wind Precip. Elev Updated Type
                   

Watches & Warnings

There are currently no watches in effect.